sensor_id;sensor_type;location;lat;lon;timestamp;pressure;altitude;pressure_sealevel;temperature;humidity
65758;BME280;52495;52.208;5.158;2023-02-28T00:01:09;103151.63;;;3.46;81.01
65758;BME280;52495;52.208;5.158;2023-02-28T00:03:36;103155.75;;;3.60;79.18
65758;BME280;52495;52.208;5.158;2023-02-28T00:06:03;103154.56;;;3.72;78.54
65758;BME280;52495;52.208;5.158;2023-02-28T00:08:30;103154.03;;;3.61;78.80
65758;BME280;52495;52.208;5.158;2023-02-28T00:11:00;103154.03;;;3.61;79.01
65758;BME280;52495;52.208;5.158;2023-02-28T00:13:27;103156.53;;;3.59;78.76
65758;BME280;52495;52.208;5.158;2023-02-28T00:16:02;103154.72;;;3.57;79.69
65758;BME280;52495;52.208;5.158;2023-02-28T00:18:30;103155.81;;;3.62;78.99
65758;BME280;52495;52.208;5.158;2023-02-28T00:20:57;103158.19;;;3.59;79.79
65758;BME280;52495;52.208;5.158;2023-02-28T00:23:24;103160.84;;;3.60;80.24
65758;BME280;52495;52.208;5.158;2023-02-28T00:25:51;103164.34;;;3.62;80.34
65758;BME280;52495;52.208;5.158;2023-02-28T00:28:18;103152.59;;;3.66;80.61
65758;BME280;52495;52.208;5.158;2023-02-28T00:30:45;103152.66;;;3.68;80.25
65758;BME280;52495;52.208;5.158;2023-02-28T00:33:14;103157.06;;;3.70;80.29
65758;BME280;52495;52.208;5.158;2023-02-28T00:35:40;103150.25;;;3.71;80.52
65758;BME280;52495;52.208;5.158;2023-02-28T00:38:08;103153.06;;;3.75;79.76
65758;BME280;52495;52.208;5.158;2023-02-28T00:40:35;103155.75;;;3.78;79.80
65758;BME280;52495;52.208;5.158;2023-02-28T00:43:02;103152.19;;;3.75;80.41
65758;BME280;52495;52.208;5.158;2023-02-28T00:45:29;103148.16;;;3.80;79.81
65758;BME280;52495;52.208;5.158;2023-02-28T00:47:56;103137.84;;;3.78;79.96
65758;BME280;52495;52.208;5.158;2023-02-28T00:50:24;103147.38;;;3.81;80.11
65758;BME280;52495;52.208;5.158;2023-02-28T00:52:51;103151.69;;;3.82;80.69
65758;BME280;52495;52.208;5.158;2023-02-28T00:55:19;103153.50;;;3.85;80.19
65758;BME280;52495;52.208;5.158;2023-02-28T00:57:48;103150.09;;;3.84;80.37
65758;BME280;52495;52.208;5.158;2023-02-28T01:00:15;103145.03;;;3.86;80.21
65758;BME280;52495;52.208;5.158;2023-02-28T01:02:42;103150.28;;;3.89;80.27
65758;BME280;52495;52.208;5.158;2023-02-28T01:05:09;103153.72;;;3.89;80.09
65758;BME280;52495;52.208;5.158;2023-02-28T01:07:37;103144.44;;;3.91;80.06
65758;BME280;52495;52.208;5.158;2023-02-28T01:10:04;103145.44;;;3.95;80.45
65758;BME280;52495;52.208;5.158;2023-02-28T01:12:32;103148.91;;;3.95;80.45
65758;BME280;52495;52.208;5.158;2023-02-28T01:14:58;103152.41;;;3.98;80.23
65758;BME280;52495;52.208;5.158;2023-02-28T01:17:25;103153.28;;;3.98;80.20
65758;BME280;52495;52.208;5.158;2023-02-28T01:19:53;103152.94;;;4.08;78.90
65758;BME280;52495;52.208;5.158;2023-02-28T01:22:20;103151.09;;;4.06;78.99
65758;BME280;52495;52.208;5.158;2023-02-28T01:24:48;103149.69;;;4.13;78.51
65758;BME280;52495;52.208;5.158;2023-02-28T01:27:14;103148.97;;;4.15;78.26
65758;BME280;52495;52.208;5.158;2023-02-28T01:29:41;103142.97;;;4.15;78.09
65758;BME280;52495;52.208;5.158;2023-02-28T01:32:08;103136.69;;;4.08;78.19
65758;BME280;52495;52.208;5.158;2023-02-28T01:34:35;103140.34;;;4.13;78.34
65758;BME280;52495;52.208;5.158;2023-02-28T01:37:03;103139.19;;;4.06;78.25
65758;BME280;52495;52.208;5.158;2023-02-28T01:39:30;103136.91;;;4.13;77.76
65758;BME280;52495;52.208;5.158;2023-02-28T01:41:58;103131.69;;;4.09;78.17
65758;BME280;52495;52.208;5.158;2023-02-28T01:44:57;103135.53;;;4.01;78.53
65758;BME280;52495;52.208;5.158;2023-02-28T01:47:26;103132.97;;;4.01;78.17
65758;BME280;52495;52.208;5.158;2023-02-28T01:49:56;103128.72;;;4.20;78.24
65758;BME280;52495;52.208;5.158;2023-02-28T01:52:24;103134.59;;;4.17;78.14
65758;BME280;52495;52.208;5.158;2023-02-28T01:54:55;103142.16;;;4.16;78.26
65758;BME280;52495;52.208;5.158;2023-02-28T01:57:29;103132.97;;;4.01;78.23
65758;BME280;52495;52.208;5.158;2023-02-28T02:00:06;103121.81;;;4.17;78.47
65758;BME280;52495;52.208;5.158;2023-02-28T02:02:47;103123.13;;;4.09;78.54
65758;BME280;52495;52.208;5.158;2023-02-28T02:05:17;103124.22;;;3.96;78.90
65758;BME280;52495;52.208;5.158;2023-02-28T02:07:47;103125.91;;;3.95;79.24
65758;BME280;52495;52.208;5.158;2023-02-28T02:10:17;103128.53;;;3.97;79.88
65758;BME280;52495;52.208;5.158;2023-02-28T02:13:04;103117.50;;;3.98;80.06
65758;BME280;52495;52.208;5.158;2023-02-28T02:15:36;103104.25;;;4.07;79.23
65758;BME280;52495;52.208;5.158;2023-02-28T02:18:14;103116.59;;;4.16;78.88
65758;BME280;52495;52.208;5.158;2023-02-28T02:24:03;103111.22;;;4.09;78.82
65758;BME280;52495;52.208;5.158;2023-02-28T02:26:55;103121.66;;;4.14;79.00
65758;BME280;52495;52.208;5.158;2023-02-28T02:29:55;103112.22;;;4.13;78.96
65758;BME280;52495;52.208;5.158;2023-02-28T02:32:50;103118.59;;;4.03;79.23
65758;BME280;52495;52.208;5.158;2023-02-28T02:35:28;103115.44;;;4.09;79.58
65758;BME280;52495;52.208;5.158;2023-02-28T02:38:04;103106.56;;;4.20;78.99
65758;BME280;52495;52.208;5.158;2023-02-28T02:40:38;103114.63;;;4.10;78.96
65758;BME280;52495;52.208;5.158;2023-02-28T02:43:14;103117.97;;;4.27;78.81
65758;BME280;52495;52.208;5.158;2023-02-28T02:45:45;103112.28;;;4.15;79.15
65758;BME280;52495;52.208;5.158;2023-02-28T02:48:18;103117.56;;;4.18;79.69
65758;BME280;52495;52.208;5.158;2023-02-28T02:50:50;103111.13;;;4.08;79.41
65758;BME280;52495;52.208;5.158;2023-02-28T02:53:21;103111.22;;;4.09;79.93
65758;BME280;52495;52.208;5.158;2023-02-28T02:55:51;103117.59;;;4.19;79.55
65758;BME280;52495;52.208;5.158;2023-02-28T02:58:24;103117.56;;;4.18;79.34
65758;BME280;52495;52.208;5.158;2023-02-28T03:00:55;103119.31;;;4.19;79.76
65758;BME280;52495;52.208;5.158;2023-02-28T03:03:24;103114.94;;;4.16;80.00
65758;BME280;52495;52.208;5.158;2023-02-28T03:05:57;103122.50;;;4.15;79.68
65758;BME280;52495;52.208;5.158;2023-02-28T03:08:25;103118.03;;;4.29;79.71
65758;BME280;52495;52.208;5.158;2023-02-28T03:10:55;103113.59;;;4.24;79.85
65758;BME280;52495;52.208;5.158;2023-02-28T03:13:49;103115.06;;;4.19;80.04
65758;BME280;52495;52.208;5.158;2023-02-28T03:16:33;103107.38;;;4.19;79.97
65758;BME280;52495;52.208;5.158;2023-02-28T03:19:25;103109.47;;;4.28;79.84
65758;BME280;52495;52.208;5.158;2023-02-28T03:24:55;103103.81;;;4.16;80.34
65758;BME280;52495;52.208;5.158;2023-02-28T03:27:26;103104.41;;;4.10;80.77
65758;BME280;52495;52.208;5.158;2023-02-28T03:30:00;103108.78;;;4.13;80.81
65758;BME280;52495;52.208;5.158;2023-02-28T03:32:33;103103.97;;;4.19;80.39
65758;BME280;52495;52.208;5.158;2023-02-28T03:35:06;103105.38;;;4.12;80.82
65758;BME280;52495;52.208;5.158;2023-02-28T03:37:40;103111.28;;;4.11;81.36
65758;BME280;52495;52.208;5.158;2023-02-28T03:40:11;103115.66;;;4.14;81.81
65758;BME280;52495;52.208;5.158;2023-02-28T03:42:42;103109.03;;;4.17;81.93
65758;BME280;52495;52.208;5.158;2023-02-28T03:45:13;103114.13;;;4.17;81.92
65758;BME280;52495;52.208;5.158;2023-02-28T03:47:46;103111.78;;;4.22;82.01
65758;BME280;52495;52.208;5.158;2023-02-28T03:50:17;103117.97;;;4.27;81.51
65758;BME280;52495;52.208;5.158;2023-02-28T03:52:50;103119.50;;;4.23;81.76
65758;BME280;52495;52.208;5.158;2023-02-28T03:55:18;103119.50;;;4.23;81.60
65758;BME280;52495;52.208;5.158;2023-02-28T03:57:53;103118.84;;;4.28;81.57
65758;BME280;52495;52.208;5.158;2023-02-28T04:00:28;103117.91;;;4.25;81.67
65758;BME280;52495;52.208;5.158;2023-02-28T04:02:58;103120.59;;;4.29;81.77
65758;BME280;52495;52.208;5.158;2023-02-28T04:05:26;103114.84;;;4.33;81.45
65758;BME280;52495;52.208;5.158;2023-02-28T04:08:03;103117.16;;;4.28;81.81
65758;BME280;52495;52.208;5.158;2023-02-28T04:10:30;103116.34;;;4.29;82.05
65758;BME280;52495;52.208;5.158;2023-02-28T04:12:57;103113.00;;;4.30;81.91
65758;BME280;52495;52.208;5.158;2023-02-28T04:15:24;103126.59;;;4.29;81.85
65758;BME280;52495;52.208;5.158;2023-02-28T04:17:52;103128.34;;;4.30;81.99
65758;BME280;52495;52.208;5.158;2023-02-28T04:20:20;103130.03;;;4.30;82.27
65758;BME280;52495;52.208;5.158;2023-02-28T04:22:48;103127.31;;;4.27;82.86
65758;BME280;52495;52.208;5.158;2023-02-28T04:25:16;103129.94;;;4.28;82.08
65758;BME280;52495;52.208;5.158;2023-02-28T04:27:43;103134.00;;;4.23;82.33
65758;BME280;52495;52.208;5.158;2023-02-28T04:30:11;103127.28;;;4.25;82.27
65758;BME280;52495;52.208;5.158;2023-02-28T04:32:37;103126.13;;;4.18;82.73
65758;BME280;52495;52.208;5.158;2023-02-28T04:35:05;103126.03;;;4.17;82.93
65758;BME280;52495;52.208;5.158;2023-02-28T04:37:32;103120.72;;;4.12;83.89
65758;BME280;52495;52.208;5.158;2023-02-28T04:40:00;103126.63;;;4.11;83.59
65758;BME280;52495;52.208;5.158;2023-02-28T04:42:28;103117.19;;;4.10;83.62
65758;BME280;52495;52.208;5.158;2023-02-28T04:45:01;103129.31;;;4.14;82.93
65758;BME280;52495;52.208;5.158;2023-02-28T04:47:28;103123.69;;;4.03;83.47
65758;BME280;52495;52.208;5.158;2023-02-28T04:49:55;103126.91;;;3.99;83.65
65758;BME280;52495;52.208;5.158;2023-02-28T04:52:22;103126.75;;;3.96;83.97
65758;BME280;52495;52.208;5.158;2023-02-28T04:54:49;103127.56;;;3.95;83.78
65758;BME280;52495;52.208;5.158;2023-02-28T04:57:16;103131.06;;;3.97;83.98
65758;BME280;52495;52.208;5.158;2023-02-28T04:59:44;103129.47;;;3.99;83.08
65758;BME280;52495;52.208;5.158;2023-02-28T05:02:10;103123.34;;;3.95;83.21
65758;BME280;52495;52.208;5.158;2023-02-28T05:04:37;103120.69;;;3.94;83.00
65758;BME280;52495;52.208;5.158;2023-02-28T05:07:04;103120.78;;;3.95;83.07
65758;BME280;52495;52.208;5.158;2023-02-28T05:09:31;103120.03;;;3.98;83.04
65758;BME280;52495;52.208;5.158;2023-02-28T05:11:59;103126.84;;;3.98;82.46
65758;BME280;52495;52.208;5.158;2023-02-28T05:14:26;103127.72;;;3.98;81.89
65758;BME280;52495;52.208;5.158;2023-02-28T05:16:54;103126.34;;;3.87;80.71
65758;BME280;52495;52.208;5.158;2023-02-28T05:19:21;103124.59;;;3.86;80.69
65758;BME280;52495;52.208;5.158;2023-02-28T05:21:50;103123.56;;;3.82;80.13
65758;BME280;52495;52.208;5.158;2023-02-28T05:24:18;103124.44;;;3.83;80.23
65758;BME280;52495;52.208;5.158;2023-02-28T05:26:49;103127.78;;;3.82;79.39
65758;BME280;52495;52.208;5.158;2023-02-28T05:29:18;103125.19;;;3.80;78.17
65758;BME280;52495;52.208;5.158;2023-02-28T05:31:45;103125.75;;;3.74;77.42
65758;BME280;52495;52.208;5.158;2023-02-28T05:34:13;103127.22;;;3.69;76.63
65758;BME280;52495;52.208;5.158;2023-02-28T05:36:41;103132.22;;;3.68;76.41
65758;BME280;52495;52.208;5.158;2023-02-28T05:39:08;103135.63;;;3.67;76.16
65758;BME280;52495;52.208;5.158;2023-02-28T05:41:39;103134.50;;;3.61;75.15
65758;BME280;52495;52.208;5.158;2023-02-28T05:44:06;103133.59;;;3.61;75.46
65758;BME280;52495;52.208;5.158;2023-02-28T05:46:33;103132.81;;;3.62;75.19
65758;BME280;52495;52.208;5.158;2023-02-28T05:49:00;103133.53;;;3.59;73.53
65758;BME280;52495;52.208;5.158;2023-02-28T05:51:28;103133.47;;;3.58;74.09
65758;BME280;52495;52.208;5.158;2023-02-28T05:53:58;103135.09;;;3.56;73.82
65758;BME280;52495;52.208;5.158;2023-02-28T05:56:25;103132.44;;;3.54;74.04
65758;BME280;52495;52.208;5.158;2023-02-28T05:58:52;103145.31;;;3.56;73.62
65758;BME280;52495;52.208;5.158;2023-02-28T06:01:25;103141.69;;;3.52;74.00
65758;BME280;52495;52.208;5.158;2023-02-28T06:03:56;103148.44;;;3.50;73.43
65758;BME280;52495;52.208;5.158;2023-02-28T06:06:24;103145.72;;;3.47;73.41
65758;BME280;52495;52.208;5.158;2023-02-28T06:08:52;103149.13;;;3.47;73.69
65758;BME280;52495;52.208;5.158;2023-02-28T06:11:19;103141.25;;;3.43;73.58
65758;BME280;52495;52.208;5.158;2023-02-28T06:13:46;103146.38;;;3.43;73.53
65758;BME280;52495;52.208;5.158;2023-02-28T06:16:13;103150.44;;;3.39;74.17
65758;BME280;52495;52.208;5.158;2023-02-28T06:18:40;103149.41;;;3.36;74.83
65758;BME280;52495;52.208;5.158;2023-02-28T06:21:07;103159.47;;;3.32;74.88
65758;BME280;52495;52.208;5.158;2023-02-28T06:23:34;103155.81;;;3.27;75.61
65758;BME280;52495;52.208;5.158;2023-02-28T06:26:02;103157.97;;;3.19;76.68
65758;BME280;52495;52.208;5.158;2023-02-28T06:28:29;103154.53;;;3.19;77.67
65758;BME280;52495;52.208;5.158;2023-02-28T06:30:55;103170.19;;;3.09;78.57
65758;BME280;52495;52.208;5.158;2023-02-28T06:33:23;103157.81;;;3.00;80.40
65758;BME280;52495;52.208;5.158;2023-02-28T06:35:51;103162.28;;;2.87;82.36
65758;BME280;52495;52.208;5.158;2023-02-28T06:38:18;103148.56;;;2.85;82.43
65758;BME280;52495;52.208;5.158;2023-02-28T06:40:52;103161.97;;;2.81;83.25
65758;BME280;52495;52.208;5.158;2023-02-28T06:43:21;103166.03;;;2.78;83.89
65758;BME280;52495;52.208;5.158;2023-02-28T06:45:48;103166.84;;;2.77;84.70
65758;BME280;52495;52.208;5.158;2023-02-28T06:48:14;103163.94;;;2.70;85.10
65758;BME280;52495;52.208;5.158;2023-02-28T06:50:41;103164.50;;;2.65;86.13
65758;BME280;52495;52.208;5.158;2023-02-28T06:53:08;103177.31;;;2.66;86.12
65758;BME280;52495;52.208;5.158;2023-02-28T06:55:37;103166.66;;;2.57;87.13
65758;BME280;52495;52.208;5.158;2023-02-28T06:58:04;103172.53;;;2.56;87.93
65758;BME280;52495;52.208;5.158;2023-02-28T07:00:41;103175.88;;;2.55;88.09
65758;BME280;52495;52.208;5.158;2023-02-28T07:03:09;103179.31;;;2.55;88.56
65758;BME280;52495;52.208;5.158;2023-02-28T07:05:36;103184.72;;;2.62;87.43
65758;BME280;52495;52.208;5.158;2023-02-28T07:08:04;103183.47;;;2.53;88.04
65758;BME280;52495;52.208;5.158;2023-02-28T07:10:31;103185.03;;;2.51;89.17
65758;BME280;52495;52.208;5.158;2023-02-28T07:12:59;103188.22;;;2.47;89.35
65758;BME280;52495;52.208;5.158;2023-02-28T07:15:25;103187.25;;;2.45;89.68
65758;BME280;52495;52.208;5.158;2023-02-28T07:17:54;103186.28;;;2.43;89.81
65758;BME280;52495;52.208;5.158;2023-02-28T07:20:21;103190.84;;;2.49;90.01
65758;BME280;52495;52.208;5.158;2023-02-28T07:22:48;103176.97;;;2.43;90.98
65758;BME280;52495;52.208;5.158;2023-02-28T07:25:21;103182.38;;;2.50;90.98
65758;BME280;52495;52.208;5.158;2023-02-28T07:27:48;103181.94;;;2.57;91.26
65758;BME280;52495;52.208;5.158;2023-02-28T07:30:15;103188.81;;;2.58;89.95
65758;BME280;52495;52.208;5.158;2023-02-28T07:32:42;103183.66;;;2.73;88.78
65758;BME280;52495;52.208;5.158;2023-02-28T07:35:10;103187.31;;;2.78;87.30
65758;BME280;52495;52.208;5.158;2023-02-28T07:37:37;103175.34;;;2.77;87.74
65758;BME280;52495;52.208;5.158;2023-02-28T07:40:07;103181.78;;;2.54;88.27
65758;BME280;52495;52.208;5.158;2023-02-28T07:42:37;103179.63;;;2.62;88.94
65758;BME280;52495;52.208;5.158;2023-02-28T07:45:05;103176.13;;;2.60;89.28
65758;BME280;52495;52.208;5.158;2023-02-28T07:47:32;103174.50;;;2.45;89.31
65758;BME280;52495;52.208;5.158;2023-02-28T07:49:59;103180.88;;;2.37;90.80
65758;BME280;52495;52.208;5.158;2023-02-28T07:52:27;103180.88;;;2.37;90.57
65758;BME280;52495;52.208;5.158;2023-02-28T07:54:56;103173.22;;;2.37;92.45
65758;BME280;52495;52.208;5.158;2023-02-28T07:57:23;103177.97;;;2.31;92.79
65758;BME280;52495;52.208;5.158;2023-02-28T07:59:51;103176.13;;;2.60;90.83
65758;BME280;52495;52.208;5.158;2023-02-28T08:02:18;103184.44;;;2.72;90.05
65758;BME280;52495;52.208;5.158;2023-02-28T08:04:45;103187.38;;;2.63;90.33
65758;BME280;52495;52.208;5.158;2023-02-28T08:07:13;103186.25;;;2.58;91.23
65758;BME280;52495;52.208;5.158;2023-02-28T08:09:42;103179.22;;;2.54;91.24
65758;BME280;52495;52.208;5.158;2023-02-28T08:12:09;103183.88;;;2.30;91.66
65758;BME280;52495;52.208;5.158;2023-02-28T08:14:38;103175.22;;;2.42;91.94
65758;BME280;52495;52.208;5.158;2023-02-28T08:17:05;103186.28;;;2.43;91.81
65758;BME280;52495;52.208;5.158;2023-02-28T08:19:32;103192.34;;;2.45;92.08
65758;BME280;52495;52.208;5.158;2023-02-28T08:21:59;103188.97;;;2.30;93.62
65758;BME280;52495;52.208;5.158;2023-02-28T08:24:26;103185.28;;;2.56;91.67
65758;BME280;52495;52.208;5.158;2023-02-28T08:26:54;103192.59;;;2.50;92.17
65758;BME280;52495;52.208;5.158;2023-02-28T08:29:21;103198.69;;;2.68;91.61
65758;BME280;52495;52.208;5.158;2023-02-28T08:31:48;103191.59;;;2.63;91.07
65758;BME280;52495;52.208;5.158;2023-02-28T08:34:16;103190.56;;;2.59;93.07
65758;BME280;52495;52.208;5.158;2023-02-28T08:36:45;103191.59;;;2.63;94.81
65758;BME280;52495;52.208;5.158;2023-02-28T08:39:14;103187.94;;;2.74;93.97
65758;BME280;52495;52.208;5.158;2023-02-28T08:41:42;103191.72;;;2.81;94.93
65758;BME280;52495;52.208;5.158;2023-02-28T08:44:11;103183.66;;;2.90;95.21
65758;BME280;52495;52.208;5.158;2023-02-28T08:46:37;103192.66;;;2.99;95.45
65758;BME280;52495;52.208;5.158;2023-02-28T08:49:04;103196.66;;;3.11;95.65
65758;BME280;52495;52.208;5.158;2023-02-28T08:51:32;103196.25;;;3.19;96.00
65758;BME280;52495;52.208;5.158;2023-02-28T08:54:00;103197.53;;;3.28;95.83
65758;BME280;52495;52.208;5.158;2023-02-28T08:56:27;103193.75;;;3.38;95.98
65758;BME280;52495;52.208;5.158;2023-02-28T08:58:56;103190.09;;;3.49;96.07
65758;BME280;52495;52.208;5.158;2023-02-28T09:01:26;103194.13;;;3.62;94.91
65758;BME280;52495;52.208;5.158;2023-02-28T09:03:55;103186.72;;;3.67;94.36
65758;BME280;52495;52.208;5.158;2023-02-28T09:06:23;103182.94;;;3.60;93.17
65758;BME280;52495;52.208;5.158;2023-02-28T09:08:51;103193.63;;;3.69;92.63
65758;BME280;52495;52.208;5.158;2023-02-28T09:11:18;103191.16;;;3.71;91.86
65758;BME280;52495;52.208;5.158;2023-02-28T09:13:45;103195.81;;;3.79;92.08
65758;BME280;52495;52.208;5.158;2023-02-28T09:16:14;103200.34;;;3.85;91.52
65758;BME280;52495;52.208;5.158;2023-02-28T09:18:44;103200.50;;;3.88;91.04
65758;BME280;52495;52.208;5.158;2023-02-28T09:21:12;103212.72;;;3.94;90.39
65758;BME280;52495;52.208;5.158;2023-02-28T09:23:40;103208.66;;;3.98;89.54
65758;BME280;52495;52.208;5.158;2023-02-28T09:26:08;103203.28;;;3.93;87.68
65758;BME280;52495;52.208;5.158;2023-02-28T09:28:39;103195.13;;;4.00;87.48
65758;BME280;52495;52.208;5.158;2023-02-28T09:31:06;103196.72;;;3.98;86.29
65758;BME280;52495;52.208;5.158;2023-02-28T09:33:32;103198.25;;;3.94;83.90
65758;BME280;52495;52.208;5.158;2023-02-28T09:36:02;103212.06;;;3.98;82.95
65758;BME280;52495;52.208;5.158;2023-02-28T09:38:30;103198.69;;;4.04;82.07
65758;BME280;52495;52.208;5.158;2023-02-28T09:40:58;103208.81;;;4.01;82.57
65758;BME280;52495;52.208;5.158;2023-02-28T09:43:29;103211.34;;;4.01;82.35
65758;BME280;52495;52.208;5.158;2023-02-28T09:46:00;103208.22;;;4.06;80.72
65758;BME280;52495;52.208;5.158;2023-02-28T09:48:34;103203.25;;;4.09;80.50
65758;BME280;52495;52.208;5.158;2023-02-28T09:51:05;103203.75;;;4.20;80.68
65758;BME280;52495;52.208;5.158;2023-02-28T09:53:37;103201.13;;;4.19;79.18
65758;BME280;52495;52.208;5.158;2023-02-28T09:56:10;103208.16;;;4.23;77.41
65758;BME280;52495;52.208;5.158;2023-02-28T09:58:41;103212.81;;;4.32;78.11
65758;BME280;52495;52.208;5.158;2023-02-28T10:01:18;103204.63;;;4.39;75.17
65758;BME280;52495;52.208;5.158;2023-02-28T10:03:51;103206.00;;;4.50;74.30
65758;BME280;52495;52.208;5.158;2023-02-28T10:06:27;103216.31;;;4.52;71.38
65758;BME280;52495;52.208;5.158;2023-02-28T10:08:59;103207.56;;;4.66;72.64
65758;BME280;52495;52.208;5.158;2023-02-28T10:11:28;103213.28;;;4.61;69.62
65758;BME280;52495;52.208;5.158;2023-02-28T10:14:01;103207.72;;;4.69;70.75
65758;BME280;52495;52.208;5.158;2023-02-28T10:16:34;103216.50;;;4.75;70.20
65758;BME280;52495;52.208;5.158;2023-02-28T10:19:05;103208.06;;;4.77;69.52
65758;BME280;52495;52.208;5.158;2023-02-28T10:21:39;103207.53;;;4.84;68.65
65758;BME280;52495;52.208;5.158;2023-02-28T10:24:17;103202.88;;;4.95;67.42
65758;BME280;52495;52.208;5.158;2023-02-28T10:26:47;103209.28;;;5.05;68.34
65758;BME280;52495;52.208;5.158;2023-02-28T10:29:15;103199.31;;;5.11;67.91
65758;BME280;52495;52.208;5.158;2023-02-28T10:31:41;103206.41;;;5.17;68.02
65758;BME280;52495;52.208;5.158;2023-02-28T10:34:11;103195.47;;;5.21;67.01
65758;BME280;52495;52.208;5.158;2023-02-28T10:36:41;103196.56;;;5.26;66.55
65758;BME280;52495;52.208;5.158;2023-02-28T10:39:34;103193.25;;;5.29;65.23
65758;BME280;52495;52.208;5.158;2023-02-28T10:42:01;103190.19;;;5.38;65.22
65758;BME280;52495;52.208;5.158;2023-02-28T10:44:28;103181.34;;;5.51;63.36
65758;BME280;52495;52.208;5.158;2023-02-28T10:46:55;103181.22;;;5.47;60.88
65758;BME280;52495;52.208;5.158;2023-02-28T10:49:25;103184.16;;;5.57;60.16
65758;BME280;52495;52.208;5.158;2023-02-28T10:51:55;103181.69;;;5.58;56.97
65758;BME280;52495;52.208;5.158;2023-02-28T10:54:30;103185.69;;;5.73;54.39
65758;BME280;52495;52.208;5.158;2023-02-28T10:57:15;103175.06;;;5.64;51.38
65758;BME280;52495;52.208;5.158;2023-02-28T10:59:43;103171.91;;;5.71;51.94
65758;BME280;52495;52.208;5.158;2023-02-28T11:02:33;103178.16;;;5.77;51.47
65758;BME280;52495;52.208;5.158;2023-02-28T11:05:27;103170.06;;;5.88;50.22
65758;BME280;52495;52.208;5.158;2023-02-28T11:07:58;103157.44;;;6.15;49.89
65758;BME280;52495;52.208;5.158;2023-02-28T11:10:30;103157.41;;;6.14;49.38
65758;BME280;52495;52.208;5.158;2023-02-28T11:13:00;103156.06;;;6.23;49.16
65758;BME280;52495;52.208;5.158;2023-02-28T11:15:30;103153.91;;;6.34;47.56
65758;BME280;52495;52.208;5.158;2023-02-28T11:18:00;103150.41;;;6.55;47.77
65758;BME280;52495;52.208;5.158;2023-02-28T11:20:29;103144.47;;;6.56;46.94
65758;BME280;52495;52.208;5.158;2023-02-28T11:22:59;103141.91;;;6.80;47.67
65758;BME280;52495;52.208;5.158;2023-02-28T11:25:30;103132.09;;;6.94;45.80
65758;BME280;52495;52.208;5.158;2023-02-28T11:27:59;103135.34;;;6.89;46.89
65758;BME280;52495;52.208;5.158;2023-02-28T11:30:33;103137.97;;;6.90;45.46
65758;BME280;52495;52.208;5.158;2023-02-28T11:33:13;103136.13;;;7.12;45.97
65758;BME280;52495;52.208;5.158;2023-02-28T11:35:45;103124.28;;;7.16;45.86
65758;BME280;52495;52.208;5.158;2023-02-28T11:38:24;103125.28;;;7.21;45.70
65758;BME280;52495;52.208;5.158;2023-02-28T11:41:02;103125.94;;;7.13;44.85
65758;BME280;52495;52.208;5.158;2023-02-28T11:43:40;103120.00;;;6.90;44.56
65758;BME280;52495;52.208;5.158;2023-02-28T11:46:22;103117.69;;;6.98;45.64
65758;BME280;52495;52.208;5.158;2023-02-28T11:48:58;103122.88;;;6.99;45.58
65758;BME280;52495;52.208;5.158;2023-02-28T11:51:32;103113.13;;;7.15;46.78
65758;BME280;52495;52.208;5.158;2023-02-28T11:54:23;103121.59;;;7.12;45.98
65758;BME280;52495;52.208;5.158;2023-02-28T11:56:57;103108.88;;;7.16;44.87
65758;BME280;52495;52.208;5.158;2023-02-28T11:59:38;103107.50;;;7.25;43.71
65758;BME280;52495;52.208;5.158;2023-02-28T12:02:23;103103.06;;;7.21;43.80
65758;BME280;52495;52.208;5.158;2023-02-28T12:05:05;103099.22;;;7.34;43.31
65758;BME280;52495;52.208;5.158;2023-02-28T12:07:43;103096.56;;;7.33;43.98
65758;BME280;52495;52.208;5.158;2023-02-28T12:10:21;103107.75;;;7.33;43.21
65758;BME280;52495;52.208;5.158;2023-02-28T12:12:58;103101.78;;;7.34;43.31
65758;BME280;52495;52.208;5.158;2023-02-28T12:15:50;103097.97;;;7.23;43.19
65758;BME280;52495;52.208;5.158;2023-02-28T12:18:28;103096.22;;;7.22;44.57
65758;BME280;52495;52.208;5.158;2023-02-28T12:21:05;103101.09;;;7.40;43.37
65758;BME280;52495;52.208;5.158;2023-02-28T12:23:56;103101.09;;;7.40;43.82
65758;BME280;52495;52.208;5.158;2023-02-28T12:26:34;103092.50;;;7.39;42.96
65758;BME280;52495;52.208;5.158;2023-02-28T12:29:10;103098.72;;;7.46;43.71
65758;BME280;52495;52.208;5.158;2023-02-28T12:31:46;103095.31;;;7.47;42.85
65758;BME280;52495;52.208;5.158;2023-02-28T12:34:20;103089.75;;;7.60;41.75
65758;BME280;52495;52.208;5.158;2023-02-28T12:36:49;103084.59;;;7.60;42.26
65758;BME280;52495;52.208;5.158;2023-02-28T12:39:22;103079.06;;;7.75;40.72
65758;BME280;52495;52.208;5.158;2023-02-28T12:41:54;103087.38;;;7.67;41.23
65758;BME280;52495;52.208;5.158;2023-02-28T12:44:28;103077.47;;;7.52;40.75
65758;BME280;52495;52.208;5.158;2023-02-28T12:47:00;103067.13;;;7.49;41.17
65758;BME280;52495;52.208;5.158;2023-02-28T12:49:33;103067.13;;;7.49;40.20
65758;BME280;52495;52.208;5.158;2023-02-28T12:52:02;103076.31;;;7.69;39.93
65758;BME280;52495;52.208;5.158;2023-02-28T12:54:33;103076.22;;;7.66;40.38
65758;BME280;52495;52.208;5.158;2023-02-28T12:57:09;103077.22;;;7.71;39.40
65758;BME280;52495;52.208;5.158;2023-02-28T12:59:41;103074.59;;;7.68;39.92
65758;BME280;52495;52.208;5.158;2023-02-28T13:05:29;103072.44;;;7.55;41.26
65758;BME280;52495;52.208;5.158;2023-02-28T13:08:20;103068.69;;;7.72;40.47
65758;BME280;52495;52.208;5.158;2023-02-28T13:10:51;103071.94;;;7.67;41.47
65758;BME280;52495;52.208;5.158;2023-02-28T13:13:23;103061.72;;;7.68;41.24
65758;BME280;52495;52.208;5.158;2023-02-28T13:16:02;103052.78;;;7.86;41.26
65758;BME280;52495;52.208;5.158;2023-02-28T13:18:32;103052.50;;;8.05;39.86
65758;BME280;52495;52.208;5.158;2023-02-28T13:21:01;103048.97;;;8.00;40.11
65758;BME280;52495;52.208;5.158;2023-02-28T13:23:38;103052.19;;;7.95;40.23
65758;BME280;52495;52.208;5.158;2023-02-28T13:26:05;103050.72;;;8.01;40.73
65758;BME280;52495;52.208;5.158;2023-02-28T13:35:44;103045.59;;;8.03;39.73